sensor_id;sensor_type;location;lat;lon;timestamp;P1;durP1;ratioP1;P2;durP2;ratioP2
17133;SDS011;8682;52.120;5.252;2023-04-03T00:00:08;545.70;;;263.40;;
17133;SDS011;8682;52.120;5.252;2023-04-03T00:02:35;472.27;;;247.90;;
17133;SDS011;8682;52.120;5.252;2023-04-03T00:05:02;382.90;;;199.80;;
17133;SDS011;8682;52.120;5.252;2023-04-03T00:07:31;388.33;;;200.73;;
17133;SDS011;8682;52.120;5.252;2023-04-03T00:09:58;428.50;;;230.63;;
17133;SDS011;8682;52.120;5.252;2023-04-03T00:12:25;712.60;;;272.93;;
17133;SDS011;8682;52.120;5.252;2023-04-03T00:14:52;797.20;;;334.93;;
17133;SDS011;8682;52.120;5.252;2023-04-03T00:17:19;682.10;;;271.47;;
17133;SDS011;8682;52.120;5.252;2023-04-03T00:19:46;1101.17;;;518.73;;
17133;SDS011;8682;52.120;5.252;2023-04-03T00:22:14;940.27;;;368.73;;
17133;SDS011;8682;52.120;5.252;2023-04-03T00:24:42;728.23;;;303.13;;
17133;SDS011;8682;52.120;5.252;2023-04-03T00:27:09;756.97;;;321.50;;
17133;SDS011;8682;52.120;5.252;2023-04-03T00:29:37;787.30;;;314.27;;
17133;SDS011;8682;52.120;5.252;2023-04-03T00:32:04;835.53;;;329.23;;
17133;SDS011;8682;52.120;5.252;2023-04-03T00:34:31;896.67;;;359.73;;
17133;SDS011;8682;52.120;5.252;2023-04-03T00:36:58;1230.27;;;528.63;;
17133;SDS011;8682;52.120;5.252;2023-04-03T00:39:26;1025.53;;;383.50;;
17133;SDS011;8682;52.120;5.252;2023-04-03T00:41:54;1662.97;;;788.10;;
17133;SDS011;8682;52.120;5.252;2023-04-03T00:44:22;1191.77;;;563.03;;
17133;SDS011;8682;52.120;5.252;2023-04-03T00:47:10;455.53;;;242.10;;
17133;SDS011;8682;52.120;5.252;2023-04-03T00:49:38;1126.47;;;542.70;;
17133;SDS011;8682;52.120;5.252;2023-04-03T00:52:05;850.90;;;325.77;;
17133;SDS011;8682;52.120;5.252;2023-04-03T00:54:35;1207.43;;;555.10;;
17133;SDS011;8682;52.120;5.252;2023-04-03T00:57:04;795.93;;;321.07;;
17133;SDS011;8682;52.120;5.252;2023-04-03T00:59:34;808.10;;;340.03;;
17133;SDS011;8682;52.120;5.252;2023-04-03T01:02:02;1165.03;;;546.47;;
17133;SDS011;8682;52.120;5.252;2023-04-03T01:04:30;1262.27;;;553.20;;
17133;SDS011;8682;52.120;5.252;2023-04-03T01:06:58;1255.83;;;582.60;;
17133;SDS011;8682;52.120;5.252;2023-04-03T01:09:28;934.97;;;358.53;;
17133;SDS011;8682;52.120;5.252;2023-04-03T01:14:39;1208.10;;;561.07;;
17133;SDS011;8682;52.120;5.252;2023-04-03T01:17:20;1226.33;;;579.67;;
17133;SDS011;8682;52.120;5.252;2023-04-03T01:19:51;826.27;;;340.53;;
17133;SDS011;8682;52.120;5.252;2023-04-03T01:22:19;1229.07;;;550.23;;
17133;SDS011;8682;52.120;5.252;2023-04-03T01:24:50;936.30;;;436.17;;
17133;SDS011;8682;52.120;5.252;2023-04-03T01:27:18;1338.60;;;596.83;;
17133;SDS011;8682;52.120;5.252;2023-04-03T01:29:47;1249.40;;;565.73;;
17133;SDS011;8682;52.120;5.252;2023-04-03T01:32:15;1273.23;;;572.03;;
17133;SDS011;8682;52.120;5.252;2023-04-03T01:34:42;1353.83;;;610.17;;
17133;SDS011;8682;52.120;5.252;2023-04-03T01:37:10;1261.07;;;581.87;;
17133;SDS011;8682;52.120;5.252;2023-04-03T01:39:37;1367.53;;;608.30;;
17133;SDS011;8682;52.120;5.252;2023-04-03T01:42:04;1289.57;;;599.80;;
17133;SDS011;8682;52.120;5.252;2023-04-03T01:44:31;875.20;;;356.80;;
17133;SDS011;8682;52.120;5.252;2023-04-03T01:46:58;1328.37;;;610.00;;
17133;SDS011;8682;52.120;5.252;2023-04-03T01:49:27;1202.90;;;550.10;;
17133;SDS011;8682;52.120;5.252;2023-04-03T01:51:54;1301.70;;;608.40;;
17133;SDS011;8682;52.120;5.252;2023-04-03T01:54:21;1322.33;;;605.10;;
17133;SDS011;8682;52.120;5.252;2023-04-03T01:56:48;1316.93;;;584.23;;
17133;SDS011;8682;52.120;5.252;2023-04-03T01:59:15;1261.73;;;572.23;;
17133;SDS011;8682;52.120;5.252;2023-04-03T02:01:44;1193.00;;;581.50;;
17133;SDS011;8682;52.120;5.252;2023-04-03T02:04:11;1388.57;;;598.07;;
17133;SDS011;8682;52.120;5.252;2023-04-03T02:06:40;1999.90;;;999.90;;
17133;SDS011;8682;52.120;5.252;2023-04-03T02:09:07;1304.27;;;620.47;;
17133;SDS011;8682;52.120;5.252;2023-04-03T02:11:34;1268.03;;;591.60;;
17133;SDS011;8682;52.120;5.252;2023-04-03T02:14:01;916.47;;;413.07;;
17133;SDS011;8682;52.120;5.252;2023-04-03T02:16:28;1361.90;;;614.77;;
17133;SDS011;8682;52.120;5.252;2023-04-03T02:18:56;1290.03;;;618.67;;
17133;SDS011;8682;52.120;5.252;2023-04-03T02:21:23;751.63;;;352.13;;
17133;SDS011;8682;52.120;5.252;2023-04-03T02:23:51;1298.97;;;619.80;;
17133;SDS011;8682;52.120;5.252;2023-04-03T02:26:19;1252.77;;;578.67;;
17133;SDS011;8682;52.120;5.252;2023-04-03T02:28:46;1258.33;;;605.60;;
17133;SDS011;8682;52.120;5.252;2023-04-03T02:31:13;1008.13;;;393.17;;
17133;SDS011;8682;52.120;5.252;2023-04-03T02:33:40;1285.00;;;568.60;;
17133;SDS011;8682;52.120;5.252;2023-04-03T02:36:07;805.60;;;357.30;;
17133;SDS011;8682;52.120;5.252;2023-04-03T02:38:35;1172.63;;;557.77;;
17133;SDS011;8682;52.120;5.252;2023-04-03T02:41:03;808.13;;;360.63;;
17133;SDS011;8682;52.120;5.252;2023-04-03T02:43:31;1216.40;;;566.60;;
17133;SDS011;8682;52.120;5.252;2023-04-03T02:45:59;1245.77;;;593.60;;
17133;SDS011;8682;52.120;5.252;2023-04-03T02:48:26;1353.40;;;626.60;;
17133;SDS011;8682;52.120;5.252;2023-04-03T02:50:53;1203.03;;;584.47;;
17133;SDS011;8682;52.120;5.252;2023-04-03T02:53:20;1999.90;;;999.90;;
17133;SDS011;8682;52.120;5.252;2023-04-03T02:55:47;1250.23;;;571.53;;
17133;SDS011;8682;52.120;5.252;2023-04-03T02:58:16;1163.27;;;545.40;;
17133;SDS011;8682;52.120;5.252;2023-04-03T03:00:43;875.60;;;352.90;;
17133;SDS011;8682;52.120;5.252;2023-04-03T03:03:10;871.93;;;354.50;;
17133;SDS011;8682;52.120;5.252;2023-04-03T03:05:38;858.37;;;371.30;;
17133;SDS011;8682;52.120;5.252;2023-04-03T03:08:05;868.20;;;392.60;;
17133;SDS011;8682;52.120;5.252;2023-04-03T03:10:32;795.93;;;319.93;;
17133;SDS011;8682;52.120;5.252;2023-04-03T03:12:59;658.43;;;297.97;;
17133;SDS011;8682;52.120;5.252;2023-04-03T03:15:28;751.67;;;325.57;;
17133;SDS011;8682;52.120;5.252;2023-04-03T03:17:55;1132.00;;;549.60;;
17133;SDS011;8682;52.120;5.252;2023-04-03T03:20:22;659.20;;;282.37;;
17133;SDS011;8682;52.120;5.252;2023-04-03T03:22:49;559.37;;;310.83;;
17133;SDS011;8682;52.120;5.252;2023-04-03T03:25:16;444.73;;;269.77;;
17133;SDS011;8682;52.120;5.252;2023-04-03T03:27:43;573.33;;;269.50;;
17133;SDS011;8682;52.120;5.252;2023-04-03T03:30:11;375.00;;;208.13;;
17133;SDS011;8682;52.120;5.252;2023-04-03T03:32:40;530.87;;;284.97;;
17133;SDS011;8682;52.120;5.252;2023-04-03T03:35:07;457.40;;;235.87;;
17133;SDS011;8682;52.120;5.252;2023-04-03T03:37:35;415.87;;;239.13;;
17133;SDS011;8682;52.120;5.252;2023-04-03T03:40:02;505.97;;;254.20;;
17133;SDS011;8682;52.120;5.252;2023-04-03T03:42:29;526.20;;;298.13;;
17133;SDS011;8682;52.120;5.252;2023-04-03T03:44:56;599.43;;;286.13;;
17133;SDS011;8682;52.120;5.252;2023-04-03T03:47:23;469.87;;;251.03;;
17133;SDS011;8682;52.120;5.252;2023-04-03T03:49:52;392.67;;;224.20;;
17133;SDS011;8682;52.120;5.252;2023-04-03T03:52:19;474.37;;;271.93;;
17133;SDS011;8682;52.120;5.252;2023-04-03T03:54:46;569.43;;;277.17;;
17133;SDS011;8682;52.120;5.252;2023-04-03T03:57:13;567.07;;;284.97;;
17133;SDS011;8682;52.120;5.252;2023-04-03T03:59:41;500.17;;;272.40;;
17133;SDS011;8682;52.120;5.252;2023-04-03T04:02:09;453.37;;;268.47;;
17133;SDS011;8682;52.120;5.252;2023-04-03T04:04:36;537.30;;;293.37;;
17133;SDS011;8682;52.120;5.252;2023-04-03T04:07:05;531.63;;;276.80;;
17133;SDS011;8682;52.120;5.252;2023-04-03T04:09:32;533.40;;;250.93;;
17133;SDS011;8682;52.120;5.252;2023-04-03T04:11:59;624.57;;;295.63;;
17133;SDS011;8682;52.120;5.252;2023-04-03T04:14:26;585.50;;;318.20;;
17133;SDS011;8682;52.120;5.252;2023-04-03T04:16:53;592.77;;;306.33;;
17133;SDS011;8682;52.120;5.252;2023-04-03T04:19:20;645.37;;;342.00;;
17133;SDS011;8682;52.120;5.252;2023-04-03T04:21:47;712.57;;;336.60;;
17133;SDS011;8682;52.120;5.252;2023-04-03T04:24:16;625.07;;;281.07;;
17133;SDS011;8682;52.120;5.252;2023-04-03T04:26:43;1010.67;;;515.23;;
17133;SDS011;8682;52.120;5.252;2023-04-03T04:29:10;410.20;;;231.60;;
17133;SDS011;8682;52.120;5.252;2023-04-03T04:31:38;639.20;;;304.67;;
17133;SDS011;8682;52.120;5.252;2023-04-03T04:34:05;1122.93;;;573.33;;
17133;SDS011;8682;52.120;5.252;2023-04-03T04:36:32;684.90;;;315.17;;
17133;SDS011;8682;52.120;5.252;2023-04-03T04:38:59;746.73;;;329.03;;
17133;SDS011;8682;52.120;5.252;2023-04-03T04:41:27;700.43;;;348.17;;
17133;SDS011;8682;52.120;5.252;2023-04-03T04:43:55;656.73;;;331.50;;
17133;SDS011;8682;52.120;5.252;2023-04-03T04:46:22;1009.47;;;531.97;;
17133;SDS011;8682;52.120;5.252;2023-04-03T04:48:49;713.40;;;321.53;;
17133;SDS011;8682;52.120;5.252;2023-04-03T04:51:16;1195.90;;;591.57;;
17133;SDS011;8682;52.120;5.252;2023-04-03T04:53:43;744.97;;;349.40;;
17133;SDS011;8682;52.120;5.252;2023-04-03T04:56:10;697.67;;;301.17;;
17133;SDS011;8682;52.120;5.252;2023-04-03T04:58:39;1172.90;;;543.63;;
17133;SDS011;8682;52.120;5.252;2023-04-03T05:01:07;1189.47;;;582.93;;
17133;SDS011;8682;52.120;5.252;2023-04-03T05:03:34;589.87;;;302.67;;
17133;SDS011;8682;52.120;5.252;2023-04-03T05:06:02;1187.57;;;572.87;;
17133;SDS011;8682;52.120;5.252;2023-04-03T05:08:29;1178.83;;;575.37;;
17133;SDS011;8682;52.120;5.252;2023-04-03T05:10:56;1190.50;;;584.57;;
17133;SDS011;8682;52.120;5.252;2023-04-03T05:13:23;710.33;;;319.10;;
17133;SDS011;8682;52.120;5.252;2023-04-03T05:15:52;1216.23;;;599.33;;
17133;SDS011;8682;52.120;5.252;2023-04-03T05:18:19;1149.20;;;550.07;;
17133;SDS011;8682;52.120;5.252;2023-04-03T05:20:48;1162.03;;;560.57;;
17133;SDS011;8682;52.120;5.252;2023-04-03T05:23:15;1163.27;;;570.00;;
17133;SDS011;8682;52.120;5.252;2023-04-03T05:25:43;771.90;;;338.73;;
17133;SDS011;8682;52.120;5.252;2023-04-03T05:28:12;927.67;;;460.50;;
17133;SDS011;8682;52.120;5.252;2023-04-03T05:30:39;1999.90;;;999.90;;
17133;SDS011;8682;52.120;5.252;2023-04-03T05:33:07;1151.83;;;565.60;;
17133;SDS011;8682;52.120;5.252;2023-04-03T05:35:35;1185.50;;;556.70;;
17133;SDS011;8682;52.120;5.252;2023-04-03T05:38:04;1423.10;;;649.23;;
17133;SDS011;8682;52.120;5.252;2023-04-03T05:40:31;1196.10;;;560.80;;
17133;SDS011;8682;52.120;5.252;2023-04-03T05:42:58;1202.03;;;591.43;;
17133;SDS011;8682;52.120;5.252;2023-04-03T05:45:25;1172.27;;;570.57;;
17133;SDS011;8682;52.120;5.252;2023-04-03T05:47:52;1235.83;;;633.90;;
17133;SDS011;8682;52.120;5.252;2023-04-03T05:50:21;1274.33;;;620.23;;
17133;SDS011;8682;52.120;5.252;2023-04-03T05:52:49;665.03;;;326.83;;
17133;SDS011;8682;52.120;5.252;2023-04-03T05:55:16;1999.90;;;999.90;;
17133;SDS011;8682;52.120;5.252;2023-04-03T05:57:43;1299.07;;;600.33;;
17133;SDS011;8682;52.120;5.252;2023-04-03T06:00:12;1390.87;;;639.93;;
17133;SDS011;8682;52.120;5.252;2023-04-03T06:02:40;1999.90;;;999.90;;
17133;SDS011;8682;52.120;5.252;2023-04-03T06:05:08;1999.90;;;999.90;;
17133;SDS011;8682;52.120;5.252;2023-04-03T06:07:38;1999.90;;;999.90;;
17133;SDS011;8682;52.120;5.252;2023-04-03T06:10:05;1999.90;;;999.90;;
17133;SDS011;8682;52.120;5.252;2023-04-03T06:12:33;1999.90;;;999.90;;
17133;SDS011;8682;52.120;5.252;2023-04-03T06:15:00;1999.90;;;999.90;;
17133;SDS011;8682;52.120;5.252;2023-04-03T06:17:28;1999.90;;;999.90;;
17133;SDS011;8682;52.120;5.252;2023-04-03T06:19:56;1999.90;;;999.90;;
17133;SDS011;8682;52.120;5.252;2023-04-03T06:22:23;1999.90;;;999.90;;
17133;SDS011;8682;52.120;5.252;2023-04-03T06:24:53;1999.90;;;999.90;;
17133;SDS011;8682;52.120;5.252;2023-04-03T06:27:20;1801.83;;;721.30;;
17133;SDS011;8682;52.120;5.252;2023-04-03T06:29:47;314.20;;;249.00;;
17133;SDS011;8682;52.120;5.252;2023-04-03T06:32:14;12.13;;;11.27;;
17133;SDS011;8682;52.120;5.252;2023-04-03T06:34:41;12.67;;;11.60;;
17133;SDS011;8682;52.120;5.252;2023-04-03T06:37:10;12.73;;;11.93;;
17133;SDS011;8682;52.120;5.252;2023-04-03T06:39:37;9.30;;;8.70;;
17133;SDS011;8682;52.120;5.252;2023-04-03T06:42:06;10.10;;;8.93;;
17133;SDS011;8682;52.120;5.252;2023-04-03T06:44:33;10.40;;;9.70;;
17133;SDS011;8682;52.120;5.252;2023-04-03T06:47:00;10.87;;;9.80;;
17133;SDS011;8682;52.120;5.252;2023-04-03T06:49:27;9.80;;;8.80;;
17133;SDS011;8682;52.120;5.252;2023-04-03T06:51:55;9.07;;;8.20;;
17133;SDS011;8682;52.120;5.252;2023-04-03T06:54:22;9.07;;;8.23;;
17133;SDS011;8682;52.120;5.252;2023-04-03T06:56:49;8.83;;;8.23;;
17133;SDS011;8682;52.120;5.252;2023-04-03T06:59:18;8.47;;;7.70;;
17133;SDS011;8682;52.120;5.252;2023-04-03T07:01:45;7.00;;;6.30;;
17133;SDS011;8682;52.120;5.252;2023-04-03T07:04:12;6.33;;;5.90;;
17133;SDS011;8682;52.120;5.252;2023-04-03T07:06:39;6.07;;;5.67;;
17133;SDS011;8682;52.120;5.252;2023-04-03T07:09:07;7.20;;;6.23;;
17133;SDS011;8682;52.120;5.252;2023-04-03T07:11:34;7.07;;;6.40;;
17133;SDS011;8682;52.120;5.252;2023-04-03T07:14:02;7.60;;;7.10;;
17133;SDS011;8682;52.120;5.252;2023-04-03T07:16:31;7.30;;;6.70;;
17133;SDS011;8682;52.120;5.252;2023-04-03T07:18:59;7.60;;;6.93;;
17133;SDS011;8682;52.120;5.252;2023-04-03T07:21:26;7.20;;;6.60;;
17133;SDS011;8682;52.120;5.252;2023-04-03T07:23:54;7.43;;;6.23;;
17133;SDS011;8682;52.120;5.252;2023-04-03T07:26:21;8.00;;;7.33;;
17133;SDS011;8682;52.120;5.252;2023-04-03T07:28:48;6.40;;;5.40;;
17133;SDS011;8682;52.120;5.252;2023-04-03T07:31:16;6.03;;;5.23;;
17133;SDS011;8682;52.120;5.252;2023-04-03T07:33:45;5.87;;;5.37;;
17133;SDS011;8682;52.120;5.252;2023-04-03T07:36:14;7.03;;;6.43;;
17133;SDS011;8682;52.120;5.252;2023-04-03T07:38:41;7.93;;;7.40;;
17133;SDS011;8682;52.120;5.252;2023-04-03T07:41:10;8.00;;;7.33;;
17133;SDS011;8682;52.120;5.252;2023-04-03T07:43:37;7.13;;;6.40;;
17133;SDS011;8682;52.120;5.252;2023-04-03T07:46:05;7.07;;;6.47;;
17133;SDS011;8682;52.120;5.252;2023-04-03T07:48:33;6.40;;;5.90;;
17133;SDS011;8682;52.120;5.252;2023-04-03T07:51:02;6.97;;;6.27;;
17133;SDS011;8682;52.120;5.252;2023-04-03T07:53:30;5.83;;;5.43;;
17133;SDS011;8682;52.120;5.252;2023-04-03T07:55:57;6.53;;;5.87;;
17133;SDS011;8682;52.120;5.252;2023-04-03T07:58:25;6.57;;;6.13;;
17133;SDS011;8682;52.120;5.252;2023-04-03T08:00:52;7.63;;;6.40;;
17133;SDS011;8682;52.120;5.252;2023-04-03T08:03:19;6.90;;;6.50;;
17133;SDS011;8682;52.120;5.252;2023-04-03T08:05:48;6.40;;;6.00;;
17133;SDS011;8682;52.120;5.252;2023-04-03T08:08:17;7.93;;;5.57;;
17133;SDS011;8682;52.120;5.252;2023-04-03T08:10:47;9.03;;;6.33;;
17133;SDS011;8682;52.120;5.252;2023-04-03T08:13:15;5.47;;;5.07;;
17133;SDS011;8682;52.120;5.252;2023-04-03T08:15:42;5.70;;;5.30;;
17133;SDS011;8682;52.120;5.252;2023-04-03T08:18:09;6.43;;;6.03;;
17133;SDS011;8682;52.120;5.252;2023-04-03T08:20:37;6.70;;;6.30;;
17133;SDS011;8682;52.120;5.252;2023-04-03T08:23:05;7.40;;;6.77;;
17133;SDS011;8682;52.120;5.252;2023-04-03T08:25:33;7.00;;;6.67;;
17133;SDS011;8682;52.120;5.252;2023-04-03T08:28:01;6.67;;;6.17;;
17133;SDS011;8682;52.120;5.252;2023-04-03T08:30:28;5.83;;;5.33;;
17133;SDS011;8682;52.120;5.252;2023-04-03T08:32:56;4.80;;;4.40;;
17133;SDS011;8682;52.120;5.252;2023-04-03T08:35:23;4.70;;;4.30;;
17133;SDS011;8682;52.120;5.252;2023-04-03T08:37:50;5.00;;;4.60;;
17133;SDS011;8682;52.120;5.252;2023-04-03T08:40:17;4.57;;;4.13;;
17133;SDS011;8682;52.120;5.252;2023-04-03T08:42:48;5.40;;;4.90;;
17133;SDS011;8682;52.120;5.252;2023-04-03T08:45:19;5.30;;;4.83;;
17133;SDS011;8682;52.120;5.252;2023-04-03T08:47:50;5.50;;;5.10;;
17133;SDS011;8682;52.120;5.252;2023-04-03T08:50:20;5.87;;;5.57;;
17133;SDS011;8682;52.120;5.252;2023-04-03T08:52:51;6.00;;;5.50;;
17133;SDS011;8682;52.120;5.252;2023-04-03T08:55:22;6.17;;;4.87;;
17133;SDS011;8682;52.120;5.252;2023-04-03T08:57:51;4.50;;;4.30;;
17133;SDS011;8682;52.120;5.252;2023-04-03T09:00:22;4.27;;;3.93;;
17133;SDS011;8682;52.120;5.252;2023-04-03T09:02:50;5.17;;;4.10;;
17133;SDS011;8682;52.120;5.252;2023-04-03T09:05:19;4.87;;;4.10;;
17133;SDS011;8682;52.120;5.252;2023-04-03T09:07:47;4.10;;;3.80;;
17133;SDS011;8682;52.120;5.252;2023-04-03T09:10:15;4.30;;;4.00;;
17133;SDS011;8682;52.120;5.252;2023-04-03T09:12:46;4.27;;;3.93;;
17133;SDS011;8682;52.120;5.252;2023-04-03T09:15:19;4.30;;;3.90;;
17133;SDS011;8682;52.120;5.252;2023-04-03T09:17:49;3.50;;;3.30;;
17133;SDS011;8682;52.120;5.252;2023-04-03T09:20:21;3.50;;;3.27;;
17133;SDS011;8682;52.120;5.252;2023-04-03T09:22:51;3.70;;;3.50;;
17133;SDS011;8682;52.120;5.252;2023-04-03T09:25:20;3.53;;;3.30;;
17133;SDS011;8682;52.120;5.252;2023-04-03T09:27:48;3.93;;;3.73;;
17133;SDS011;8682;52.120;5.252;2023-04-03T09:30:16;4.00;;;3.70;;
17133;SDS011;8682;52.120;5.252;2023-04-03T09:32:46;4.10;;;3.87;;
17133;SDS011;8682;52.120;5.252;2023-04-03T09:35:17;4.23;;;4.03;;
17133;SDS011;8682;52.120;5.252;2023-04-03T09:37:46;4.33;;;3.93;;
17133;SDS011;8682;52.120;5.252;2023-04-03T09:40:34;4.40;;;4.13;;
17133;SDS011;8682;52.120;5.252;2023-04-03T09:45:46;3.93;;;3.73;;
17133;SDS011;8682;52.120;5.252;2023-04-03T09:48:16;4.27;;;4.07;;
17133;SDS011;8682;52.120;5.252;2023-04-03T09:50:57;4.03;;;3.83;;
17133;SDS011;8682;52.120;5.252;2023-04-03T09:53:27;4.23;;;4.03;;
17133;SDS011;8682;52.120;5.252;2023-04-03T09:55:55;4.00;;;3.87;;
17133;SDS011;8682;52.120;5.252;2023-04-03T09:58:23;4.57;;;4.30;;
17133;SDS011;8682;52.120;5.252;2023-04-03T10:00:53;4.33;;;3.90;;
17133;SDS011;8682;52.120;5.252;2023-04-03T10:03:24;3.83;;;3.63;;
17133;SDS011;8682;52.120;5.252;2023-04-03T10:05:52;3.63;;;3.50;;
17133;SDS011;8682;52.120;5.252;2023-04-03T10:08:21;4.07;;;3.87;;
17133;SDS011;8682;52.120;5.252;2023-04-03T10:11:05;4.70;;;3.40;;
17133;SDS011;8682;52.120;5.252;2023-04-03T10:13:32;3.93;;;3.63;;
17133;SDS011;8682;52.120;5.252;2023-04-03T10:16:01;3.70;;;3.50;;
17133;SDS011;8682;52.120;5.252;2023-04-03T10:18:32;3.60;;;3.40;;
17133;SDS011;8682;52.120;5.252;2023-04-03T10:21:00;3.50;;;3.30;;
17133;SDS011;8682;52.120;5.252;2023-04-03T10:23:31;3.20;;;3.00;;
17133;SDS011;8682;52.120;5.252;2023-04-03T10:26:02;3.00;;;2.80;;
17133;SDS011;8682;52.120;5.252;2023-04-03T10:28:37;2.90;;;2.80;;
17133;SDS011;8682;52.120;5.252;2023-04-03T10:31:11;3.40;;;3.20;;
17133;SDS011;8682;52.120;5.252;2023-04-03T10:33:46;3.10;;;2.90;;
17133;SDS011;8682;52.120;5.252;2023-04-03T10:36:19;3.40;;;3.20;;
17133;SDS011;8682;52.120;5.252;2023-04-03T10:38:48;3.53;;;3.10;;
17133;SDS011;8682;52.120;5.252;2023-04-03T10:41:20;3.07;;;2.73;;
17133;SDS011;8682;52.120;5.252;2023-04-03T10:43:53;2.90;;;2.80;;
17133;SDS011;8682;52.120;5.252;2023-04-03T10:46:22;3.20;;;3.00;;
17133;SDS011;8682;52.120;5.252;2023-04-03T10:49:04;3.30;;;3.10;;
17133;SDS011;8682;52.120;5.252;2023-04-03T10:51:33;3.03;;;2.93;;
17133;SDS011;8682;52.120;5.252;2023-04-03T10:54:04;3.27;;;3.07;;
17133;SDS011;8682;52.120;5.252;2023-04-03T10:56:35;3.17;;;2.97;;
17133;SDS011;8682;52.120;5.252;2023-04-03T10:59:07;3.27;;;3.07;;
17133;SDS011;8682;52.120;5.252;2023-04-03T11:01:41;3.23;;;3.10;;
17133;SDS011;8682;52.120;5.252;2023-04-03T11:04:10;3.33;;;3.13;;
17133;SDS011;8682;52.120;5.252;2023-04-03T11:06:39;3.27;;;3.07;;
17133;SDS011;8682;52.120;5.252;2023-04-03T11:09:10;3.30;;;3.00;;
17133;SDS011;8682;52.120;5.252;2023-04-03T11:11:42;3.27;;;3.07;;
17133;SDS011;8682;52.120;5.252;2023-04-03T11:14:11;3.20;;;2.97;;
17133;SDS011;8682;52.120;5.252;2023-04-03T11:16:42;3.00;;;2.80;;
17133;SDS011;8682;52.120;5.252;2023-04-03T11:19:13;3.27;;;2.80;;
17133;SDS011;8682;52.120;5.252;2023-04-03T11:21:47;3.30;;;3.00;;
17133;SDS011;8682;52.120;5.252;2023-04-03T11:24:20;3.43;;;3.23;;
17133;SDS011;8682;52.120;5.252;2023-04-03T11:26:49;3.43;;;3.33;;
17133;SDS011;8682;52.120;5.252;2023-04-03T11:29:18;3.97;;;3.67;;
17133;SDS011;8682;52.120;5.252;2023-04-03T11:31:55;3.63;;;3.53;;
17133;SDS011;8682;52.120;5.252;2023-04-03T11:34:31;3.70;;;3.50;;
17133;SDS011;8682;52.120;5.252;2023-04-03T11:37:04;3.73;;;3.53;;
17133;SDS011;8682;52.120;5.252;2023-04-03T11:39:33;4.27;;;3.97;;
17133;SDS011;8682;52.120;5.252;2023-04-03T11:42:15;4.10;;;3.80;;
17133;SDS011;8682;52.120;5.252;2023-04-03T11:44:43;4.60;;;4.00;;
17133;SDS011;8682;52.120;5.252;2023-04-03T11:47:10;4.30;;;4.00;;
17133;SDS011;8682;52.120;5.252;2023-04-03T11:49:56;4.27;;;4.07;;
17133;SDS011;8682;52.120;5.252;2023-04-03T11:58:04;4.10;;;3.80;;
17133;SDS011;8682;52.120;5.252;2023-04-03T12:00:47;4.27;;;4.07;;
17133;SDS011;8682;52.120;5.252;2023-04-03T12:09:22;4.10;;;3.77;;
17133;SDS011;8682;52.120;5.252;2023-04-03T12:11:50;4.30;;;4.00;;
17133;SDS011;8682;52.120;5.252;2023-04-03T12:14:18;4.37;;;4.10;;
17133;SDS011;8682;52.120;5.252;2023-04-03T12:16:47;4.20;;;3.90;;
17133;SDS011;8682;52.120;5.252;2023-04-03T12:19:33;4.57;;;4.27;;
17133;SDS011;8682;52.120;5.252;2023-04-03T12:22:11;4.00;;;3.80;;
17133;SDS011;8682;52.120;5.252;2023-04-03T12:24:40;3.80;;;3.50;;
17133;SDS011;8682;52.120;5.252;2023-04-03T12:30:00;4.23;;;4.03;;
17133;SDS011;8682;52.120;5.252;2023-04-03T12:32:37;4.20;;;3.90;;
17133;SDS011;8682;52.120;5.252;2023-04-03T12:35:14;3.97;;;3.77;;
17133;SDS011;8682;52.120;5.252;2023-04-03T12:37:48;4.30;;;3.90;;
17133;SDS011;8682;52.120;5.252;2023-04-03T12:40:22;3.93;;;3.67;;
17133;SDS011;8682;52.120;5.252;2023-04-03T12:42:58;3.90;;;3.70;;
17133;SDS011;8682;52.120;5.252;2023-04-03T12:45:29;3.80;;;3.50;;
17133;SDS011;8682;52.120;5.252;2023-04-03T12:48:06;5.60;;;4.00;;
17133;SDS011;8682;52.120;5.252;2023-04-03T12:50:38;4.10;;;3.90;;
17133;SDS011;8682;52.120;5.252;2023-04-03T12:53:11;4.20;;;3.90;;
17133;SDS011;8682;52.120;5.252;2023-04-03T12:55:40;3.50;;;3.40;;
17133;SDS011;8682;52.120;5.252;2023-04-03T12:58:14;4.00;;;3.70;;
17133;SDS011;8682;52.120;5.252;2023-04-03T13:00:42;3.93;;;3.73;;
17133;SDS011;8682;52.120;5.252;2023-04-03T13:03:19;4.60;;;4.20;;
17133;SDS011;8682;52.120;5.252;2023-04-03T13:05:48;4.00;;;3.70;;
17133;SDS011;8682;52.120;5.252;2023-04-03T13:08:15;3.90;;;3.70;;
17133;SDS011;8682;52.120;5.252;2023-04-03T13:10:50;4.00;;;3.70;;
17133;SDS011;8682;52.120;5.252;2023-04-03T13:13:18;4.67;;;3.80;;
17133;SDS011;8682;52.120;5.252;2023-04-03T13:15:46;4.17;;;3.83;;
17133;SDS011;8682;52.120;5.252;2023-04-03T13:18:24;3.97;;;3.77;;
17133;SDS011;8682;52.120;5.252;2023-04-03T13:20:51;3.90;;;3.70;;
17133;SDS011;8682;52.120;5.252;2023-04-03T13:23:20;4.00;;;3.77;;
17133;SDS011;8682;52.120;5.252;2023-04-03T13:25:49;4.13;;;3.83;;
17133;SDS011;8682;52.120;5.252;2023-04-03T13:28:18;4.20;;;3.93;;
17133;SDS011;8682;52.120;5.252;2023-04-03T13:30:54;4.23;;;3.90;;
17133;SDS011;8682;52.120;5.252;2023-04-03T13:33:22;4.60;;;4.30;;
17133;SDS011;8682;52.120;5.252;2023-04-03T13:35:54;4.00;;;3.70;;
17133;SDS011;8682;52.120;5.252;2023-04-03T13:38:23;4.40;;;3.90;;
17133;SDS011;8682;52.120;5.252;2023-04-03T13:40:53;4.13;;;3.83;;
17133;SDS011;8682;52.120;5.252;2023-04-03T13:43:21;4.90;;;4.20;;
17133;SDS011;8682;52.120;5.252;2023-04-03T13:45:55;4.33;;;4.00;;
17133;SDS011;8682;52.120;5.252;2023-04-03T13:48:22;3.80;;;3.60;;
17133;SDS011;8682;52.120;5.252;2023-04-03T13:50:50;3.97;;;3.77;;
17133;SDS011;8682;52.120;5.252;2023-04-03T13:53:18;4.10;;;3.80;;
17133;SDS011;8682;52.120;5.252;2023-04-03T13:56:00;4.23;;;3.83;;
17133;SDS011;8682;52.120;5.252;2023-04-03T13:58:31;4.10;;;3.90;;
17133;SDS011;8682;52.120;5.252;2023-04-03T14:01:01;4.20;;;3.90;;
17133;SDS011;8682;52.120;5.252;2023-04-03T14:03:36;4.20;;;3.90;;
17133;SDS011;8682;52.120;5.252;2023-04-03T14:06:05;4.20;;;3.90;;
17133;SDS011;8682;52.120;5.252;2023-04-03T14:08:32;4.07;;;3.87;;
17133;SDS011;8682;52.120;5.252;2023-04-03T14:11:01;4.80;;;4.33;;
17133;SDS011;8682;52.120;5.252;2023-04-03T14:13:29;4.03;;;3.83;;
17133;SDS011;8682;52.120;5.252;2023-04-03T14:15:56;4.50;;;4.10;;
17133;SDS011;8682;52.120;5.252;2023-04-03T14:18:23;3.90;;;3.70;;
17133;SDS011;8682;52.120;5.252;2023-04-03T14:20:50;4.40;;;4.10;;
17133;SDS011;8682;52.120;5.252;2023-04-03T14:23:17;4.37;;;4.03;;
17133;SDS011;8682;52.120;5.252;2023-04-03T14:25:45;7.83;;;4.10;;
17133;SDS011;8682;52.120;5.252;2023-04-03T14:28:16;4.20;;;3.90;;
17133;SDS011;8682;52.120;5.252;2023-04-03T14:30:44;4.43;;;4.03;;
17133;SDS011;8682;52.120;5.252;2023-04-03T14:33:13;4.20;;;3.90;;
17133;SDS011;8682;52.120;5.252;2023-04-03T14:35:40;4.30;;;3.90;;
17133;SDS011;8682;52.120;5.252;2023-04-03T14:38:12;4.00;;;3.80;;
17133;SDS011;8682;52.120;5.252;2023-04-03T14:40:46;4.00;;;3.80;;
17133;SDS011;8682;52.120;5.252;2023-04-03T14:43:14;4.37;;;4.00;;
17133;SDS011;8682;52.120;5.252;2023-04-03T14:45:42;4.03;;;3.80;;
17133;SDS011;8682;52.120;5.252;2023-04-03T14:48:10;5.00;;;4.47;;
17133;SDS011;8682;52.120;5.252;2023-04-03T14:50:38;5.23;;;4.10;;
17133;SDS011;8682;52.120;5.252;2023-04-03T14:53:06;5.83;;;4.20;;
17133;SDS011;8682;52.120;5.252;2023-04-03T14:55:34;4.30;;;3.97;;
17133;SDS011;8682;52.120;5.252;2023-04-03T14:58:01;4.50;;;4.20;;
17133;SDS011;8682;52.120;5.252;2023-04-03T15:00:29;4.60;;;3.97;;
17133;SDS011;8682;52.120;5.252;2023-04-03T15:02:57;4.40;;;4.10;;